Pennsylvania — WAPZ — position and weather

sailwx.info

Track history (hours):
 
Tides and Currents Weather Stations Pressure Air Temp Water Temp Dewpoint Dewpoint Depression Visibility Wind Speed Wind Dir Waves Ship Positions

Pennsylvania

Owner: Crowley Petroleum Services, Jacksonville, FL. More information available from US FCC via Universal Licensing System and Coast Guard Vessel Documentation Center.

Last reported at 2017-Dec-10 10:53 UTC. Time now 2017-Dec-12 23:54 UTC.
Position N 30°02' W 094°02'.

Length 183 m; draft 11 m.

Type: Tanker. MMSI: 338617000.

Date/timePositionNaut miles runAvg speedWind from/ knotsBaromVisibWave heightAir tempDewpointWater temp
2017-Dec-10 10:53N 30°02' W 094°02'0 1.0
2017-Dec-10 10:27N 30°02' W 094°02'10 5.5
2017-Dec-10 08:37N 29°56' W 093°52'1 9.0
2017-Dec-10 08:30N 29°56' W 093°53'4 8.7
2017-Dec-10 07:59N 29°52' W 093°56'  
2017-Dec-04 10:24N 27°55' W 082°27'0 0.0
2017-Dec-04 10:00N 27°55' W 082°27'0 0.0
2017-Dec-04 09:30N 27°55' W 082°27'0 0.0
2017-Dec-04 09:00N 27°55' W 082°27'0 0.0
2017-Dec-04 08:30N 27°55' W 082°27'0 0.0
2017-Dec-04 08:00N 27°55' W 082°27'0 0.0
2017-Dec-04 07:30N 27°55' W 082°27'0 0.0
2017-Dec-04 07:00N 27°55' W 082°27'0 0.0
2017-Dec-04 06:30N 27°55' W 082°27'0 0.0
2017-Dec-04 06:00N 27°55' W 082°27'0 0.0
2017-Dec-04 05:30N 27°55' W 082°27'0 0.0
2017-Dec-04 05:00N 27°55' W 082°27'0 0.0
2017-Dec-04 04:30N 27°55' W 082°27'0 0.0
2017-Dec-04 04:00N 27°55' W 082°27'0 0.0
2017-Dec-04 03:30N 27°55' W 082°27'0 0.0
2017-Dec-04 03:00N 27°55' W 082°27'0 0.0
2017-Dec-04 02:30N 27°55' W 082°27'0 0.0
2017-Dec-04 02:00N 27°55' W 082°27'0 0.0
2017-Dec-04 01:30N 27°55' W 082°27'0 0.0
2017-Dec-04 01:00N 27°55' W 082°27'0 0.0
2017-Dec-04 00:27N 27°55' W 082°27'0 0.0
2017-Dec-04 00:00N 27°55' W 082°27'0 0.0
2017-Dec-03 23:30N 27°55' W 082°27'0 0.0
2017-Dec-03 23:00N 27°55' W 082°27'0 0.0
2017-Dec-03 22:30N 27°55' W 082°27'0 0.0
2017-Dec-03 22:00N 27°55' W 082°27'0 0.0
2017-Dec-03 21:30N 27°55' W 082°27'0 0.0
2017-Dec-03 21:00N 27°55' W 082°27'0 0.0
2017-Dec-03 20:30N 27°55' W 082°27'0 0.0
2017-Dec-03 20:00N 27°55' W 082°27'0 0.0
2017-Dec-03 19:30N 27°55' W 082°27'0 0.0
2017-Dec-03 19:00N 27°55' W 082°27'0 0.0
2017-Dec-03 18:30N 27°55' W 082°27'0 0.0
2017-Dec-03 18:00N 27°55' W 082°27'0 0.0
2017-Dec-03 17:30N 27°55' W 082°27'0 0.0
2017-Dec-03 17:00N 27°55' W 082°27'0 0.0
2017-Dec-03 16:30N 27°55' W 082°27'0 0.0
2017-Dec-03 16:00N 27°55' W 082°27'0 0.0
2017-Dec-03 15:30N 27°55' W 082°27'0 0.0
2017-Dec-03 15:00N 27°55' W 082°27'0 0.0
2017-Dec-03 14:30N 27°55' W 082°27'0 0.0
2017-Dec-03 14:00N 27°55' W 082°27'0 0.0
2017-Dec-03 13:30N 27°55' W 082°27'0 0.0
2017-Dec-03 13:00N 27°55' W 082°27'0 0.0
2017-Dec-03 12:30N 27°55' W 082°27'0 0.0
2017-Dec-03 12:00N 27°55' W 082°27'0 0.0
2017-Dec-03 11:30N 27°55' W 082°27'0 0.0
2017-Dec-03 11:00N 27°55' W 082°27'0 0.0
2017-Dec-03 10:30N 27°55' W 082°27'0 0.0
2017-Dec-03 10:00N 27°55' W 082°27'0 0.0
2017-Dec-03 09:30N 27°55' W 082°27'0 0.0
2017-Dec-03 09:00N 27°55' W 082°27'0 0.0
2017-Dec-03 08:30N 27°55' W 082°27'0 0.0
2017-Dec-03 08:00N 27°55' W 082°27'0 0.9
2017-Dec-03 07:30N 27°55' W 082°27'4 7.7
2017-Dec-03 07:00N 27°51' W 082°27'510.2
2017-Dec-03 06:30N 27°47' W 082°31'611.3
2017-Dec-03 06:00N 27°42' W 082°33'611.7
2017-Dec-03 05:30N 27°38' W 082°38'611.9
2017-Dec-03 05:00N 27°36' W 082°44'612.3
2017-Dec-03 04:29N 27°36' W 082°52'611.7
2017-Dec-03 04:00N 27°36' W 082°58'4 8.6
2017-Dec-03 03:30N 27°36' W 083°03'713.4
2017-Dec-03 03:00N 27°35' W 083°10'714.4
2017-Dec-03 02:30N 27°35' W 083°18'2614.8
2017-Dec-03 00:46N 27°34' W 083°47'1114.7
2017-Dec-02 23:59N 27°35' W 084°00'  
2017-Nov-30 12:07N 30°02' W 094°02'0 0.0
2017-Nov-30 11:13N 30°02' W 094°02'0 0.0
2017-Nov-30 10:55N 30°02' W 094°02'  
Track history (hours):
 
Tides and Currents Weather Stations Pressure Air Temp Water Temp Dewpoint Dewpoint Depression Visibility Wind Speed Wind Dir Waves Ship Positions

Pennsylvania

Owner: Crowley Petroleum Services, Jacksonville, FL. More information available from US FCC via Universal Licensing System and Coast Guard Vessel Documentation Center.

Last reported at 2017-Dec-10 10:53 UTC. Time now 2017-Dec-12 23:54 UTC.
Position N 30°02' W 094°02'.

Length 183 m; draft 11 m.

Type: Tanker. MMSI: 338617000.

Date/timePositionNaut miles runAvg speedWind from/ knotsBaromVisibWave heightAir tempDewpointWater temp
2017-Dec-10 10:53N 30°02' W 094°02'0 1.0
2017-Dec-10 10:27N 30°02' W 094°02'10 5.5
2017-Dec-10 08:37N 29°56' W 093°52'1 9.0
2017-Dec-10 08:30N 29°56' W 093°53'4 8.7
2017-Dec-10 07:59N 29°52' W 093°56'  
2017-Dec-04 10:24N 27°55' W 082°27'0 0.0
2017-Dec-04 10:00N 27°55' W 082°27'0 0.0
2017-Dec-04 09:30N 27°55' W 082°27'0 0.0
2017-Dec-04 09:00N 27°55' W 082°27'0 0.0
2017-Dec-04 08:30N 27°55' W 082°27'0 0.0
2017-Dec-04 08:00N 27°55' W 082°27'0 0.0
2017-Dec-04 07:30N 27°55' W 082°27'0 0.0
2017-Dec-04 07:00N 27°55' W 082°27'0 0.0
2017-Dec-04 06:30N 27°55' W 082°27'0 0.0
2017-Dec-04 06:00N 27°55' W 082°27'0 0.0
2017-Dec-04 05:30N 27°55' W 082°27'0 0.0
2017-Dec-04 05:00N 27°55' W 082°27'0 0.0
2017-Dec-04 04:30N 27°55' W 082°27'0 0.0
2017-Dec-04 04:00N 27°55' W 082°27'0 0.0
2017-Dec-04 03:30N 27°55' W 082°27'0 0.0
2017-Dec-04 03:00N 27°55' W 082°27'0 0.0
2017-Dec-04 02:30N 27°55' W 082°27'0 0.0
2017-Dec-04 02:00N 27°55' W 082°27'0 0.0
2017-Dec-04 01:30N 27°55' W 082°27'0 0.0
2017-Dec-04 01:00N 27°55' W 082°27'0 0.0
2017-Dec-04 00:27N 27°55' W 082°27'0 0.0
2017-Dec-04 00:00N 27°55' W 082°27'0 0.0
2017-Dec-03 23:30N 27°55' W 082°27'0 0.0
2017-Dec-03 23:00N 27°55' W 082°27'0 0.0
2017-Dec-03 22:30N 27°55' W 082°27'0 0.0
2017-Dec-03 22:00N 27°55' W 082°27'0 0.0
2017-Dec-03 21:30N 27°55' W 082°27'0 0.0
2017-Dec-03 21:00N 27°55' W 082°27'0 0.0
2017-Dec-03 20:30N 27°55' W 082°27'0 0.0
2017-Dec-03 20:00N 27°55' W 082°27'0 0.0
2017-Dec-03 19:30N 27°55' W 082°27'0 0.0
2017-Dec-03 19:00N 27°55' W 082°27'0 0.0
2017-Dec-03 18:30N 27°55' W 082°27'0 0.0
2017-Dec-03 18:00N 27°55' W 082°27'0 0.0
2017-Dec-03 17:30N 27°55' W 082°27'0 0.0
2017-Dec-03 17:00N 27°55' W 082°27'0 0.0
2017-Dec-03 16:30N 27°55' W 082°27'0 0.0
2017-Dec-03 16:00N 27°55' W 082°27'0 0.0
2017-Dec-03 15:30N 27°55' W 082°27'0 0.0
2017-Dec-03 15:00N 27°55' W 082°27'0 0.0
2017-Dec-03 14:30N 27°55' W 082°27'0 0.0
2017-Dec-03 14:00N 27°55' W 082°27'0 0.0
2017-Dec-03 13:30N 27°55' W 082°27'0 0.0
2017-Dec-03 13:00N 27°55' W 082°27'0 0.0
2017-Dec-03 12:30N 27°55' W 082°27'0 0.0
2017-Dec-03 12:00N 27°55' W 082°27'0 0.0
2017-Dec-03 11:30N 27°55' W 082°27'0 0.0
2017-Dec-03 11:00N 27°55' W 082°27'0 0.0
2017-Dec-03 10:30N 27°55' W 082°27'0 0.0
2017-Dec-03 10:00N 27°55' W 082°27'0 0.0
2017-Dec-03 09:30N 27°55' W 082°27'0 0.0
2017-Dec-03 09:00N 27°55' W 082°27'0 0.0
2017-Dec-03 08:30N 27°55' W 082°27'0 0.0
2017-Dec-03 08:00N 27°55' W 082°27'0 0.9
2017-Dec-03 07:30N 27°55' W 082°27'4 7.7
2017-Dec-03 07:00N 27°51' W 082°27'510.2
2017-Dec-03 06:30N 27°47' W 082°31'611.3
2017-Dec-03 06:00N 27°42' W 082°33'611.7
2017-Dec-03 05:30N 27°38' W 082°38'611.9
2017-Dec-03 05:00N 27°36' W 082°44'612.3
2017-Dec-03 04:29N 27°36' W 082°52'611.7
2017-Dec-03 04:00N 27°36' W 082°58'4 8.6
2017-Dec-03 03:30N 27°36' W 083°03'713.4
2017-Dec-03 03:00N 27°35' W 083°10'714.4
2017-Dec-03 02:30N 27°35' W 083°18'2614.8
2017-Dec-03 00:46N 27°34' W 083°47'1114.7
2017-Dec-02 23:59N 27°35' W 084°00'  
2017-Nov-30 12:07N 30°02' W 094°02'0 0.0
2017-Nov-30 11:13N 30°02' W 094°02'0 0.0
2017-Nov-30 10:55N 30°02' W 094°02'  

Dump ship's entire track history